MiSS Stacie — WDF5915 — position and weather

sailwx.info

Track history (hours):
 
Tides and Currents Weather Stations Pressure Air Temp Water Temp Dewpoint Dewpoint Depression Visibility Wind Speed Wind Dir Waves Ship Positions

MiSS Stacie

Owner: Crosby Marine Transportation LLC, Golden Meadow, LA. More information available from US FCC via Universal Licensing System and Coast Guard Vessel Documentation Center.

Last reported at 2018-Apr-26 01:46 UTC. Time now 2018-Apr-27 06:50 UTC.
Position N 29°34' W 090°31'.

Length 20 m; draft 2 m.

Type: Tug. MMSI: 367468640.

Date/timePositionNaut miles runAvg speedWind from/ knotsBaromVisibWave heightAir tempDewpointWater temp
2018-Apr-26 01:46N 29°34' W 090°31'2 6.8
2018-Apr-26 01:30N 29°34' W 090°33'3 6.3
2018-Apr-26 01:00N 29°35' W 090°36'3 5.7
2018-Apr-26 00:30N 29°36' W 090°39'3 5.2
2018-Apr-26 00:01N 29°37' W 090°42'3 5.1
2018-Apr-25 23:30N 29°34' W 090°43'1 1.9
2018-Apr-25 22:59N 29°34' W 090°44'0 0.0
2018-Apr-25 22:29N 29°34' W 090°44'1 1.8
2018-Apr-25 22:01N 29°34' W 090°45'3 6.4
2018-Apr-25 21:30N 29°32' W 090°48'4 7.5
2018-Apr-25 20:55N 29°33' W 090°53'57 4.3
2018-Apr-25 07:46N 29°51' W 091°55'1 5.7
2018-Apr-25 07:30N 29°50' W 091°57'3 5.8
2018-Apr-25 07:00N 29°50' W 092°00'3 5.3
2018-Apr-25 06:31N 29°49' W 092°03'3 6.2
2018-Apr-25 06:01N 29°48' W 092°06'51 5.3
2018-Apr-24 20:24N 29°56' W 093°04'2 5.9
2018-Apr-24 20:00N 29°56' W 093°07'3 5.2
2018-Apr-24 19:30N 29°57' W 093°10'3 5.9
2018-Apr-24 19:01N 29°59' W 093°12'3 5.8
2018-Apr-24 18:30N 30°01' W 093°14'3 5.2
2018-Apr-24 18:00N 30°03' W 093°16'2 3.9
2018-Apr-24 17:30N 30°05' W 093°17'1 1.9
2018-Apr-24 17:00N 30°05' W 093°18'1 1.8
2018-Apr-24 16:30N 30°06' W 093°18'3 5.8
2018-Apr-24 16:00N 30°04' W 093°21'2 4.2
2018-Apr-24 15:29N 30°04' W 093°23'0 0.2
2018-Apr-24 14:59N 30°04' W 093°23'2 3.9
2018-Apr-24 14:30N 30°04' W 093°26'3 6.4
2018-Apr-24 14:00N 30°04' W 093°29'4 6.1
2018-Apr-24 13:26N 30°04' W 093°33'2 5.8
2018-Apr-24 13:00N 30°04' W 093°36'3 5.3
2018-Apr-24 12:29N 30°04' W 093°39'2 5.0
2018-Apr-24 12:00N 30°03' W 093°42'2 2.9
2018-Apr-24 11:26N 30°03' W 093°44'1 1.8
2018-Apr-24 11:00N 30°02' W 093°44'3 5.0
2018-Apr-24 10:30N 30°00' W 093°46'3 5.3
2018-Apr-24 10:00N 29°59' W 093°49'3 5.4
2018-Apr-24 09:30N 29°57' W 093°51'3 5.2
2018-Apr-24 09:00N 29°55' W 093°53'2 4.9
2018-Apr-24 08:30N 29°53' W 093°55'2 4.8
2018-Apr-24 08:00N 29°51' W 093°57'2 4.7
2018-Apr-24 07:30N 29°49' W 093°58'2 4.9
2018-Apr-24 07:00N 29°48' W 094°00'3 5.9
2018-Apr-24 06:30N 29°46' W 094°03'3 5.8
2018-Apr-24 06:00N 29°44' W 094°05'3 5.7
2018-Apr-24 05:30N 29°42' W 094°08'2 4.9
2018-Apr-24 05:00N 29°41' W 094°11'3 5.3
2018-Apr-24 04:30N 29°40' W 094°13'3 5.4
2018-Apr-24 04:00N 29°39' W 094°16'7 5.4
2018-Apr-24 02:43N 29°36' W 094°23'1 5.3
2018-Apr-24 02:30N 29°36' W 094°24'2 4.7
2018-Apr-24 01:59N 29°34' W 094°26'23 3.9
2018-Apr-23 20:05N 29°29' W 094°52'1 6.1
2018-Apr-23 19:59N 29°30' W 094°52'3 6.3
2018-Apr-23 19:30N 29°32' W 094°54'3 6.2
2018-Apr-23 19:00N 29°35' W 094°56'3 6.9
2018-Apr-23 18:30N 29°38' W 094°58'4 7.2
2018-Apr-23 18:00N 29°41' W 094°59'3 5.2
2018-Apr-23 17:27N 29°43' W 095°01'3 6.9
2018-Apr-23 17:00N 29°45' W 095°04'1 1.9
2018-Apr-23 16:29N 29°46' W 095°05'0 0.0
2018-Apr-23 15:59N 29°46' W 095°05'0 0.0
2018-Apr-23 15:29N 29°46' W 095°05'0 0.7
2018-Apr-23 14:49N 29°47' W 095°04'1 0.7
2018-Apr-23 14:02N 29°47' W 095°05'0 0.1
2018-Apr-23 13:59N 29°47' W 095°05'1 1.0
2018-Apr-23 13:28N 29°47' W 095°05'1 0.2
2018-Apr-23 09:58N 29°47' W 095°04'2 3.3
2018-Apr-23 09:29N 29°46' W 095°05'3 5.6
2018-Apr-23 09:00N 29°44' W 095°02'2 4.4
2018-Apr-23 08:30N 29°42' W 095°01'3 5.2
2018-Apr-23 08:00N 29°40' W 094°59'3 6.0
2018-Apr-23 07:30N 29°38' W 094°58'3 6.3
2018-Apr-23 07:00N 29°35' W 094°56'3 6.0
2018-Apr-23 06:30N 29°32' W 094°54'3 5.8
2018-Apr-23 06:00N 29°30' W 094°52'3 5.6
2018-Apr-23 05:29N 29°27' W 094°51'4 5.8
2018-Apr-23 04:49N 29°24' W 094°49'  
2018-Apr-18 07:20N 29°21' W 094°49'1 3.5
2018-Apr-18 06:55N 29°22' W 094°48'9 7.3
2018-Apr-18 05:39N 29°30' W 094°53'1 7.0
2018-Apr-18 05:30N 29°31' W 094°53'3 6.8
2018-Apr-18 05:00N 29°34' W 094°55'3 6.9
2018-Apr-18 04:30N 29°37' W 094°57'3 7.0
2018-Apr-18 04:00N 29°40' W 094°59'4 6.3
2018-Apr-18 03:22N 29°44' W 095°02'2 6.5
2018-Apr-18 03:00N 29°45' W 095°04'2 4.9
2018-Apr-18 02:30N 29°47' W 095°04'0 0.5
2018-Apr-18 01:59N 29°48' W 095°04'2 3.8
2018-Apr-18 01:29N 29°47' W 095°06'0 0.0
2018-Apr-17 13:17N 29°47' W 095°06'0 0.0
2018-Apr-17 12:59N 29°47' W 095°06'0 0.0
2018-Apr-17 12:29N 29°47' W 095°06'0 0.0
2018-Apr-16 18:25N 29°47' W 095°06'2 1.0
2018-Apr-16 16:29N 29°48' W 095°04'2 0.2
2018-Apr-16 03:07N 29°46' W 095°05'  
Track history (hours):
 
Tides and Currents Weather Stations Pressure Air Temp Water Temp Dewpoint Dewpoint Depression Visibility Wind Speed Wind Dir Waves Ship Positions

MiSS Stacie

Owner: Crosby Marine Transportation LLC, Golden Meadow, LA. More information available from US FCC via Universal Licensing System and Coast Guard Vessel Documentation Center.

Last reported at 2018-Apr-26 01:46 UTC. Time now 2018-Apr-27 06:50 UTC.
Position N 29°34' W 090°31'.

Length 20 m; draft 2 m.

Type: Tug. MMSI: 367468640.

Date/timePositionNaut miles runAvg speedWind from/ knotsBaromVisibWave heightAir tempDewpointWater temp
2018-Apr-26 01:46N 29°34' W 090°31'2 6.8
2018-Apr-26 01:30N 29°34' W 090°33'3 6.3
2018-Apr-26 01:00N 29°35' W 090°36'3 5.7
2018-Apr-26 00:30N 29°36' W 090°39'3 5.2
2018-Apr-26 00:01N 29°37' W 090°42'3 5.1
2018-Apr-25 23:30N 29°34' W 090°43'1 1.9
2018-Apr-25 22:59N 29°34' W 090°44'0 0.0
2018-Apr-25 22:29N 29°34' W 090°44'1 1.8
2018-Apr-25 22:01N 29°34' W 090°45'3 6.4
2018-Apr-25 21:30N 29°32' W 090°48'4 7.5
2018-Apr-25 20:55N 29°33' W 090°53'57 4.3
2018-Apr-25 07:46N 29°51' W 091°55'1 5.7
2018-Apr-25 07:30N 29°50' W 091°57'3 5.8
2018-Apr-25 07:00N 29°50' W 092°00'3 5.3
2018-Apr-25 06:31N 29°49' W 092°03'3 6.2
2018-Apr-25 06:01N 29°48' W 092°06'51 5.3
2018-Apr-24 20:24N 29°56' W 093°04'2 5.9
2018-Apr-24 20:00N 29°56' W 093°07'3 5.2
2018-Apr-24 19:30N 29°57' W 093°10'3 5.9
2018-Apr-24 19:01N 29°59' W 093°12'3 5.8
2018-Apr-24 18:30N 30°01' W 093°14'3 5.2
2018-Apr-24 18:00N 30°03' W 093°16'2 3.9
2018-Apr-24 17:30N 30°05' W 093°17'1 1.9
2018-Apr-24 17:00N 30°05' W 093°18'1 1.8
2018-Apr-24 16:30N 30°06' W 093°18'3 5.8
2018-Apr-24 16:00N 30°04' W 093°21'2 4.2
2018-Apr-24 15:29N 30°04' W 093°23'0 0.2
2018-Apr-24 14:59N 30°04' W 093°23'2 3.9
2018-Apr-24 14:30N 30°04' W 093°26'3 6.4
2018-Apr-24 14:00N 30°04' W 093°29'4 6.1
2018-Apr-24 13:26N 30°04' W 093°33'2 5.8
2018-Apr-24 13:00N 30°04' W 093°36'3 5.3
2018-Apr-24 12:29N 30°04' W 093°39'2 5.0
2018-Apr-24 12:00N 30°03' W 093°42'2 2.9
2018-Apr-24 11:26N 30°03' W 093°44'1 1.8
2018-Apr-24 11:00N 30°02' W 093°44'3 5.0
2018-Apr-24 10:30N 30°00' W 093°46'3 5.3
2018-Apr-24 10:00N 29°59' W 093°49'3 5.4
2018-Apr-24 09:30N 29°57' W 093°51'3 5.2
2018-Apr-24 09:00N 29°55' W 093°53'2 4.9
2018-Apr-24 08:30N 29°53' W 093°55'2 4.8
2018-Apr-24 08:00N 29°51' W 093°57'2 4.7
2018-Apr-24 07:30N 29°49' W 093°58'2 4.9
2018-Apr-24 07:00N 29°48' W 094°00'3 5.9
2018-Apr-24 06:30N 29°46' W 094°03'3 5.8
2018-Apr-24 06:00N 29°44' W 094°05'3 5.7
2018-Apr-24 05:30N 29°42' W 094°08'2 4.9
2018-Apr-24 05:00N 29°41' W 094°11'3 5.3
2018-Apr-24 04:30N 29°40' W 094°13'3 5.4
2018-Apr-24 04:00N 29°39' W 094°16'7 5.4
2018-Apr-24 02:43N 29°36' W 094°23'1 5.3
2018-Apr-24 02:30N 29°36' W 094°24'2 4.7
2018-Apr-24 01:59N 29°34' W 094°26'23 3.9
2018-Apr-23 20:05N 29°29' W 094°52'1 6.1
2018-Apr-23 19:59N 29°30' W 094°52'3 6.3
2018-Apr-23 19:30N 29°32' W 094°54'3 6.2
2018-Apr-23 19:00N 29°35' W 094°56'3 6.9
2018-Apr-23 18:30N 29°38' W 094°58'4 7.2
2018-Apr-23 18:00N 29°41' W 094°59'3 5.2
2018-Apr-23 17:27N 29°43' W 095°01'3 6.9
2018-Apr-23 17:00N 29°45' W 095°04'1 1.9
2018-Apr-23 16:29N 29°46' W 095°05'0 0.0
2018-Apr-23 15:59N 29°46' W 095°05'0 0.0
2018-Apr-23 15:29N 29°46' W 095°05'0 0.7
2018-Apr-23 14:49N 29°47' W 095°04'1 0.7
2018-Apr-23 14:02N 29°47' W 095°05'0 0.1
2018-Apr-23 13:59N 29°47' W 095°05'1 1.0
2018-Apr-23 13:28N 29°47' W 095°05'1 0.2
2018-Apr-23 09:58N 29°47' W 095°04'2 3.3
2018-Apr-23 09:29N 29°46' W 095°05'3 5.6
2018-Apr-23 09:00N 29°44' W 095°02'2 4.4
2018-Apr-23 08:30N 29°42' W 095°01'3 5.2
2018-Apr-23 08:00N 29°40' W 094°59'3 6.0
2018-Apr-23 07:30N 29°38' W 094°58'3 6.3
2018-Apr-23 07:00N 29°35' W 094°56'3 6.0
2018-Apr-23 06:30N 29°32' W 094°54'3 5.8
2018-Apr-23 06:00N 29°30' W 094°52'3 5.6
2018-Apr-23 05:29N 29°27' W 094°51'4 5.8
2018-Apr-23 04:49N 29°24' W 094°49'  
2018-Apr-18 07:20N 29°21' W 094°49'1 3.5
2018-Apr-18 06:55N 29°22' W 094°48'9 7.3
2018-Apr-18 05:39N 29°30' W 094°53'1 7.0
2018-Apr-18 05:30N 29°31' W 094°53'3 6.8
2018-Apr-18 05:00N 29°34' W 094°55'3 6.9
2018-Apr-18 04:30N 29°37' W 094°57'3 7.0
2018-Apr-18 04:00N 29°40' W 094°59'4 6.3
2018-Apr-18 03:22N 29°44' W 095°02'2 6.5
2018-Apr-18 03:00N 29°45' W 095°04'2 4.9
2018-Apr-18 02:30N 29°47' W 095°04'0 0.5
2018-Apr-18 01:59N 29°48' W 095°04'2 3.8
2018-Apr-18 01:29N 29°47' W 095°06'0 0.0
2018-Apr-17 13:17N 29°47' W 095°06'0 0.0
2018-Apr-17 12:59N 29°47' W 095°06'0 0.0
2018-Apr-17 12:29N 29°47' W 095°06'0 0.0
2018-Apr-16 18:25N 29°47' W 095°06'2 1.0
2018-Apr-16 16:29N 29°48' W 095°04'2 0.2
2018-Apr-16 03:07N 29°46' W 095°05'  

Dump ship's entire track history